CYTZ/YTZ METAR and TAF weather

Enter ICAO airport designator
Station Type Date Time Source
CYTZ METAR 2019/05/19 06:00 UTC NOAA

CYTZ 190600Z AUTO 07018KT 9SM SCT095 BKN110 10/03 A2987 RMK SLP117


Station Type Date Time Source
CYTZ Decoded METAR 2019/05/19 06:00 UTC NOAA

Toronto Island Airport Automated Reporting Station, Canada (CYTZ) 43-38N 079-24W
May 19, 2019 - 02:00 AM EDT / 2019.05.19 0600 UTC
Wind: from the ENE (070 degrees) at 21 MPH (18 KT):0
Visibility: 9 mile(s):0
Sky conditions: mostly cloudy
Temperature: 50 F (10 C)
Dew Point: 37 F (3 C)
Relative Humidity: 61%
Pressure (altimeter): 29.87 in. Hg (1011 hPa)
ob: CYTZ 190600Z AUTO 07018KT 9SM SCT095 BKN110 10/03 A2987 RMK SLP117
cycle: 6

Station Type Date Time Source
CYTZ TAF 2019/05/19 05:27 UTC NOAA

TAF
AMD TAF
AMD CYTZ 190525Z 1905/2002 07012G22KT P6SM SCT025 BKN110 PROB30 1907/1912 BKN005
FM191500 11010KT P6SM SCT060 PROB30 1915/1918 2SM TSRA BR OVC050CB
FM192200 08008KT P6SM BKN060 PROB30 1922/2002 VRB15G25KT 11/2SM +TSRA BR OVC030CB
RMK FCST BASED ON AUTO OBS. NXT FCST BY 190800Z

Example: see airport list